sensor_id;sensor_type;location;lat;lon;timestamp;P1;durP1;ratioP1;P2;durP2;ratioP2
30707;SDS011;17458;48.958;8.284;2023-06-14T00:01:47;9.15;;;4.68;;
30707;SDS011;17458;48.958;8.284;2023-06-14T00:04:32;6.95;;;4.35;;
30707;SDS011;17458;48.958;8.284;2023-06-14T00:07:16;12.43;;;5.18;;
30707;SDS011;17458;48.958;8.284;2023-06-14T00:10:00;6.55;;;4.07;;
30707;SDS011;17458;48.958;8.284;2023-06-14T00:12:44;5.10;;;4.18;;
30707;SDS011;17458;48.958;8.284;2023-06-14T00:15:28;8.77;;;4.38;;
30707;SDS011;17458;48.958;8.284;2023-06-14T00:18:14;11.27;;;4.65;;
30707;SDS011;17458;48.958;8.284;2023-06-14T00:21:00;5.85;;;4.22;;
30707;SDS011;17458;48.958;8.284;2023-06-14T00:23:46;10.00;;;4.05;;
30707;SDS011;17458;48.958;8.284;2023-06-14T00:26:30;6.63;;;4.28;;
30707;SDS011;17458;48.958;8.284;2023-06-14T00:29:14;11.05;;;4.45;;
30707;SDS011;17458;48.958;8.284;2023-06-14T00:31:58;4.95;;;4.13;;
30707;SDS011;17458;48.958;8.284;2023-06-14T00:34:44;6.35;;;4.43;;
30707;SDS011;17458;48.958;8.284;2023-06-14T00:37:28;13.18;;;4.55;;
30707;SDS011;17458;48.958;8.284;2023-06-14T00:40:11;6.18;;;4.50;;
30707;SDS011;17458;48.958;8.284;2023-06-14T00:42:55;9.93;;;4.25;;
30707;SDS011;17458;48.958;8.284;2023-06-14T00:45:40;5.97;;;4.00;;
30707;SDS011;17458;48.958;8.284;2023-06-14T00:48:24;9.93;;;4.40;;
30707;SDS011;17458;48.958;8.284;2023-06-14T00:51:09;4.57;;;3.60;;
30707;SDS011;17458;48.958;8.284;2023-06-14T00:53:53;8.48;;;4.03;;
30707;SDS011;17458;48.958;8.284;2023-06-14T00:56:37;11.65;;;3.97;;
30707;SDS011;17458;48.958;8.284;2023-06-14T00:59:23;7.78;;;3.92;;
30707;SDS011;17458;48.958;8.284;2023-06-14T01:02:07;5.47;;;4.07;;
30707;SDS011;17458;48.958;8.284;2023-06-14T01:04:54;8.05;;;3.95;;
30707;SDS011;17458;48.958;8.284;2023-06-14T01:11:02;13.43;;;4.07;;
30707;SDS011;17458;48.958;8.284;2023-06-14T01:13:51;7.22;;;4.53;;
30707;SDS011;17458;48.958;8.284;2023-06-14T01:16:39;9.13;;;3.67;;
30707;SDS011;17458;48.958;8.284;2023-06-14T01:19:24;6.88;;;4.25;;
30707;SDS011;17458;48.958;8.284;2023-06-14T01:22:09;8.82;;;3.97;;
30707;SDS011;17458;48.958;8.284;2023-06-14T01:24:54;5.45;;;3.60;;
30707;SDS011;17458;48.958;8.284;2023-06-14T01:27:42;9.60;;;4.10;;
30707;SDS011;17458;48.958;8.284;2023-06-14T01:30:26;3.72;;;3.10;;
30707;SDS011;17458;48.958;8.284;2023-06-14T01:33:12;5.20;;;3.45;;
30707;SDS011;17458;48.958;8.284;2023-06-14T01:35:58;10.45;;;4.28;;
30707;SDS011;17458;48.958;8.284;2023-06-14T01:38:43;10.05;;;4.32;;
30707;SDS011;17458;48.958;8.284;2023-06-14T01:41:28;5.43;;;3.80;;
30707;SDS011;17458;48.958;8.284;2023-06-14T01:44:16;6.07;;;3.50;;
30707;SDS011;17458;48.958;8.284;2023-06-14T01:47:01;5.03;;;3.53;;
30707;SDS011;17458;48.958;8.284;2023-06-14T01:49:46;6.93;;;4.72;;
30707;SDS011;17458;48.958;8.284;2023-06-14T01:52:30;6.75;;;4.30;;
30707;SDS011;17458;48.958;8.284;2023-06-14T01:55:14;4.35;;;3.47;;
30707;SDS011;17458;48.958;8.284;2023-06-14T01:57:58;4.63;;;3.55;;
30707;SDS011;17458;48.958;8.284;2023-06-14T02:00:44;4.88;;;3.60;;
30707;SDS011;17458;48.958;8.284;2023-06-14T02:03:28;6.03;;;3.85;;
30707;SDS011;17458;48.958;8.284;2023-06-14T02:06:12;5.63;;;4.00;;
30707;SDS011;17458;48.958;8.284;2023-06-14T02:08:57;9.88;;;4.03;;
30707;SDS011;17458;48.958;8.284;2023-06-14T02:11:41;19.00;;;3.95;;
30707;SDS011;17458;48.958;8.284;2023-06-14T02:14:25;5.72;;;3.38;;
30707;SDS011;17458;48.958;8.284;2023-06-14T02:17:10;4.55;;;3.60;;
30707;SDS011;17458;48.958;8.284;2023-06-14T02:19:54;7.13;;;4.40;;
30707;SDS011;17458;48.958;8.284;2023-06-14T02:22:38;7.00;;;3.75;;
30707;SDS011;17458;48.958;8.284;2023-06-14T02:25:24;8.02;;;3.58;;
30707;SDS011;17458;48.958;8.284;2023-06-14T02:28:09;7.22;;;3.95;;
30707;SDS011;17458;48.958;8.284;2023-06-14T02:30:53;5.57;;;3.90;;
30707;SDS011;17458;48.958;8.284;2023-06-14T02:33:40;5.55;;;3.75;;
30707;SDS011;17458;48.958;8.284;2023-06-14T02:36:24;12.13;;;4.05;;
30707;SDS011;17458;48.958;8.284;2023-06-14T02:39:08;9.55;;;3.92;;
30707;SDS011;17458;48.958;8.284;2023-06-14T02:41:53;9.40;;;4.80;;
30707;SDS011;17458;48.958;8.284;2023-06-14T02:44:38;6.60;;;4.05;;
30707;SDS011;17458;48.958;8.284;2023-06-14T02:47:21;5.15;;;4.00;;
30707;SDS011;17458;48.958;8.284;2023-06-14T02:50:06;5.85;;;4.00;;
30707;SDS011;17458;48.958;8.284;2023-06-14T02:52:50;4.68;;;3.35;;
30707;SDS011;17458;48.958;8.284;2023-06-14T02:55:36;6.60;;;3.95;;
30707;SDS011;17458;48.958;8.284;2023-06-14T02:58:23;5.90;;;3.40;;
30707;SDS011;17458;48.958;8.284;2023-06-14T03:01:09;9.55;;;4.15;;
30707;SDS011;17458;48.958;8.284;2023-06-14T03:03:56;6.28;;;3.80;;
30707;SDS011;17458;48.958;8.284;2023-06-14T03:06:41;12.18;;;4.65;;
30707;SDS011;17458;48.958;8.284;2023-06-14T03:09:28;5.03;;;3.67;;
30707;SDS011;17458;48.958;8.284;2023-06-14T03:12:13;6.07;;;3.83;;
30707;SDS011;17458;48.958;8.284;2023-06-14T03:14:57;6.15;;;4.05;;
30707;SDS011;17458;48.958;8.284;2023-06-14T03:17:53;8.65;;;4.00;;
30707;SDS011;17458;48.958;8.284;2023-06-14T03:20:38;4.85;;;3.45;;
30707;SDS011;17458;48.958;8.284;2023-06-14T03:23:24;5.68;;;4.20;;
30707;SDS011;17458;48.958;8.284;2023-06-14T03:26:09;4.70;;;3.92;;
30707;SDS011;17458;48.958;8.284;2023-06-14T03:28:53;6.75;;;3.33;;
30707;SDS011;17458;48.958;8.284;2023-06-14T03:31:41;5.80;;;4.25;;
30707;SDS011;17458;48.958;8.284;2023-06-14T03:34:41;4.95;;;3.85;;
30707;SDS011;17458;48.958;8.284;2023-06-14T03:37:28;4.60;;;3.90;;
30707;SDS011;17458;48.958;8.284;2023-06-14T03:40:12;4.15;;;3.30;;
30707;SDS011;17458;48.958;8.284;2023-06-14T03:43:00;11.95;;;3.38;;
30707;SDS011;17458;48.958;8.284;2023-06-14T03:45:45;5.03;;;3.70;;
30707;SDS011;17458;48.958;8.284;2023-06-14T03:48:30;5.22;;;3.53;;
30707;SDS011;17458;48.958;8.284;2023-06-14T03:51:14;10.07;;;4.53;;
30707;SDS011;17458;48.958;8.284;2023-06-14T03:53:59;6.78;;;3.72;;
30707;SDS011;17458;48.958;8.284;2023-06-14T03:56:43;19.40;;;3.67;;
30707;SDS011;17458;48.958;8.284;2023-06-14T03:59:29;7.30;;;4.53;;
30707;SDS011;17458;48.958;8.284;2023-06-14T04:02:13;9.02;;;3.88;;
30707;SDS011;17458;48.958;8.284;2023-06-14T04:05:02;5.05;;;3.67;;
30707;SDS011;17458;48.958;8.284;2023-06-14T04:07:47;5.90;;;3.55;;
30707;SDS011;17458;48.958;8.284;2023-06-14T04:10:32;10.15;;;4.30;;
30707;SDS011;17458;48.958;8.284;2023-06-14T04:13:16;7.00;;;3.70;;
30707;SDS011;17458;48.958;8.284;2023-06-14T04:16:01;8.07;;;3.50;;
30707;SDS011;17458;48.958;8.284;2023-06-14T04:18:50;7.82;;;3.60;;
30707;SDS011;17458;48.958;8.284;2023-06-14T04:21:36;13.43;;;4.05;;
30707;SDS011;17458;48.958;8.284;2023-06-14T04:24:21;6.53;;;3.50;;
30707;SDS011;17458;48.958;8.284;2023-06-14T04:27:06;9.10;;;4.05;;
30707;SDS011;17458;48.958;8.284;2023-06-14T04:29:53;4.97;;;3.33;;
30707;SDS011;17458;48.958;8.284;2023-06-14T04:32:41;16.55;;;4.72;;
30707;SDS011;17458;48.958;8.284;2023-06-14T04:35:28;10.07;;;3.97;;
30707;SDS011;17458;48.958;8.284;2023-06-14T04:38:13;10.10;;;4.45;;
30707;SDS011;17458;48.958;8.284;2023-06-14T04:40:59;7.15;;;3.90;;
30707;SDS011;17458;48.958;8.284;2023-06-14T04:43:46;6.05;;;3.50;;
30707;SDS011;17458;48.958;8.284;2023-06-14T04:46:33;4.53;;;3.45;;
30707;SDS011;17458;48.958;8.284;2023-06-14T04:49:31;8.57;;;4.10;;
30707;SDS011;17458;48.958;8.284;2023-06-14T04:52:17;5.40;;;3.50;;
30707;SDS011;17458;48.958;8.284;2023-06-14T04:55:04;7.30;;;4.40;;
30707;SDS011;17458;48.958;8.284;2023-06-14T04:57:50;8.75;;;3.42;;
30707;SDS011;17458;48.958;8.284;2023-06-14T05:00:37;7.65;;;3.85;;
30707;SDS011;17458;48.958;8.284;2023-06-14T05:03:24;6.03;;;3.95;;
30707;SDS011;17458;48.958;8.284;2023-06-14T05:06:09;5.35;;;4.10;;
30707;SDS011;17458;48.958;8.284;2023-06-14T05:08:53;5.38;;;3.88;;
30707;SDS011;17458;48.958;8.284;2023-06-14T05:11:37;7.18;;;4.15;;
30707;SDS011;17458;48.958;8.284;2023-06-14T05:14:22;4.65;;;3.45;;
30707;SDS011;17458;48.958;8.284;2023-06-14T05:17:08;9.73;;;4.72;;
30707;SDS011;17458;48.958;8.284;2023-06-14T05:19:52;6.45;;;3.72;;
30707;SDS011;17458;48.958;8.284;2023-06-14T05:22:36;10.90;;;3.97;;
30707;SDS011;17458;48.958;8.284;2023-06-14T05:25:20;10.68;;;5.30;;
30707;SDS011;17458;48.958;8.284;2023-06-14T05:28:04;6.80;;;3.75;;
30707;SDS011;17458;48.958;8.284;2023-06-14T05:30:49;9.40;;;3.95;;
30707;SDS011;17458;48.958;8.284;2023-06-14T05:33:33;7.68;;;3.83;;
30707;SDS011;17458;48.958;8.284;2023-06-14T05:36:17;12.98;;;4.18;;
30707;SDS011;17458;48.958;8.284;2023-06-14T05:39:01;4.63;;;3.70;;
30707;SDS011;17458;48.958;8.284;2023-06-14T05:41:46;11.15;;;4.07;;
30707;SDS011;17458;48.958;8.284;2023-06-14T05:44:30;10.95;;;3.42;;
30707;SDS011;17458;48.958;8.284;2023-06-14T05:47:14;5.28;;;4.07;;
30707;SDS011;17458;48.958;8.284;2023-06-14T05:49:58;7.50;;;3.97;;
30707;SDS011;17458;48.958;8.284;2023-06-14T05:52:42;5.70;;;4.05;;
30707;SDS011;17458;48.958;8.284;2023-06-14T05:55:26;13.82;;;3.35;;
30707;SDS011;17458;48.958;8.284;2023-06-14T05:58:10;9.45;;;3.33;;
30707;SDS011;17458;48.958;8.284;2023-06-14T06:00:57;5.07;;;3.78;;
30707;SDS011;17458;48.958;8.284;2023-06-14T06:03:41;5.22;;;3.40;;
30707;SDS011;17458;48.958;8.284;2023-06-14T06:06:29;5.95;;;4.20;;
30707;SDS011;17458;48.958;8.284;2023-06-14T06:09:13;13.93;;;3.95;;
30707;SDS011;17458;48.958;8.284;2023-06-14T06:11:58;10.60;;;3.90;;
30707;SDS011;17458;48.958;8.284;2023-06-14T06:14:42;6.50;;;4.07;;
30707;SDS011;17458;48.958;8.284;2023-06-14T06:17:26;12.45;;;5.13;;
30707;SDS011;17458;48.958;8.284;2023-06-14T06:20:11;13.65;;;3.90;;
30707;SDS011;17458;48.958;8.284;2023-06-14T06:22:55;8.27;;;3.30;;
30707;SDS011;17458;48.958;8.284;2023-06-14T06:25:39;5.90;;;4.07;;
30707;SDS011;17458;48.958;8.284;2023-06-14T06:28:23;8.20;;;4.63;;
30707;SDS011;17458;48.958;8.284;2023-06-14T06:31:07;8.20;;;5.22;;
30707;SDS011;17458;48.958;8.284;2023-06-14T06:33:51;8.48;;;4.40;;
30707;SDS011;17458;48.958;8.284;2023-06-14T06:36:35;9.65;;;3.92;;
30707;SDS011;17458;48.958;8.284;2023-06-14T06:39:20;11.73;;;4.00;;
30707;SDS011;17458;48.958;8.284;2023-06-14T06:42:05;12.32;;;3.92;;
30707;SDS011;17458;48.958;8.284;2023-06-14T06:44:53;8.77;;;3.63;;
30707;SDS011;17458;48.958;8.284;2023-06-14T06:47:38;11.77;;;3.65;;
30707;SDS011;17458;48.958;8.284;2023-06-14T06:50:21;6.38;;;4.05;;
30707;SDS011;17458;48.958;8.284;2023-06-14T06:53:09;8.13;;;3.92;;
30707;SDS011;17458;48.958;8.284;2023-06-14T06:55:53;10.63;;;3.85;;
30707;SDS011;17458;48.958;8.284;2023-06-14T06:58:37;8.38;;;4.28;;
30707;SDS011;17458;48.958;8.284;2023-06-14T07:01:21;9.65;;;4.13;;
30707;SDS011;17458;48.958;8.284;2023-06-14T07:04:05;7.05;;;3.58;;
30707;SDS011;17458;48.958;8.284;2023-06-14T07:06:49;6.70;;;3.53;;
30707;SDS011;17458;48.958;8.284;2023-06-14T07:09:33;7.60;;;3.70;;
30707;SDS011;17458;48.958;8.284;2023-06-14T07:12:17;9.95;;;3.47;;
30707;SDS011;17458;48.958;8.284;2023-06-14T07:15:01;5.57;;;3.17;;
30707;SDS011;17458;48.958;8.284;2023-06-14T07:17:47;6.80;;;4.15;;
30707;SDS011;17458;48.958;8.284;2023-06-14T07:20:31;7.68;;;3.65;;
30707;SDS011;17458;48.958;8.284;2023-06-14T07:23:16;7.50;;;3.80;;
30707;SDS011;17458;48.958;8.284;2023-06-14T07:26:00;8.18;;;3.58;;
30707;SDS011;17458;48.958;8.284;2023-06-14T07:28:44;12.07;;;4.38;;
30707;SDS011;17458;48.958;8.284;2023-06-14T07:31:28;8.98;;;3.55;;
30707;SDS011;17458;48.958;8.284;2023-06-14T07:34:13;7.35;;;3.83;;
30707;SDS011;17458;48.958;8.284;2023-06-14T07:36:57;4.30;;;3.63;;
30707;SDS011;17458;48.958;8.284;2023-06-14T07:39:41;5.65;;;3.55;;
30707;SDS011;17458;48.958;8.284;2023-06-14T07:42:25;7.88;;;3.95;;
30707;SDS011;17458;48.958;8.284;2023-06-14T07:45:09;6.97;;;3.83;;
30707;SDS011;17458;48.958;8.284;2023-06-14T07:47:53;6.05;;;3.88;;
30707;SDS011;17458;48.958;8.284;2023-06-14T07:50:38;10.07;;;4.45;;
30707;SDS011;17458;48.958;8.284;2023-06-14T07:53:26;6.63;;;3.53;;
30707;SDS011;17458;48.958;8.284;2023-06-14T07:56:10;4.22;;;2.65;;
30707;SDS011;17458;48.958;8.284;2023-06-14T07:58:54;9.35;;;3.42;;
30707;SDS011;17458;48.958;8.284;2023-06-14T08:01:38;6.65;;;3.97;;
30707;SDS011;17458;48.958;8.284;2023-06-14T08:04:23;5.75;;;3.42;;
30707;SDS011;17458;48.958;8.284;2023-06-14T08:07:08;5.28;;;3.30;;
30707;SDS011;17458;48.958;8.284;2023-06-14T08:09:52;3.65;;;3.33;;
30707;SDS011;17458;48.958;8.284;2023-06-14T08:12:36;5.93;;;3.50;;
30707;SDS011;17458;48.958;8.284;2023-06-14T08:15:20;5.57;;;4.25;;
30707;SDS011;17458;48.958;8.284;2023-06-14T08:18:04;13.80;;;3.97;;
30707;SDS011;17458;48.958;8.284;2023-06-14T08:20:48;6.05;;;3.60;;
30707;SDS011;17458;48.958;8.284;2023-06-14T08:23:34;8.10;;;4.15;;
30707;SDS011;17458;48.958;8.284;2023-06-14T08:26:17;7.07;;;3.13;;
30707;SDS011;17458;48.958;8.284;2023-06-14T08:29:02;6.90;;;3.17;;
30707;SDS011;17458;48.958;8.284;2023-06-14T08:31:46;12.20;;;3.15;;
30707;SDS011;17458;48.958;8.284;2023-06-14T08:34:30;6.25;;;3.83;;
30707;SDS011;17458;48.958;8.284;2023-06-14T08:37:14;9.82;;;3.60;;
30707;SDS011;17458;48.958;8.284;2023-06-14T08:39:58;6.15;;;3.50;;
30707;SDS011;17458;48.958;8.284;2023-06-14T08:42:42;6.65;;;3.35;;
30707;SDS011;17458;48.958;8.284;2023-06-14T08:45:27;7.68;;;3.30;;
30707;SDS011;17458;48.958;8.284;2023-06-14T08:48:11;3.55;;;3.08;;
30707;SDS011;17458;48.958;8.284;2023-06-14T08:51:01;9.90;;;3.03;;
30707;SDS011;17458;48.958;8.284;2023-06-14T08:53:48;8.30;;;2.75;;
30707;SDS011;17458;48.958;8.284;2023-06-14T08:56:40;4.07;;;3.42;;
30707;SDS011;17458;48.958;8.284;2023-06-14T08:59:28;5.10;;;3.05;;
30707;SDS011;17458;48.958;8.284;2023-06-14T09:02:12;6.32;;;3.20;;
30707;SDS011;17458;48.958;8.284;2023-06-14T09:04:58;4.10;;;3.03;;
30707;SDS011;17458;48.958;8.284;2023-06-14T09:07:43;4.78;;;3.33;;
30707;SDS011;17458;48.958;8.284;2023-06-14T09:10:28;5.65;;;4.22;;
30707;SDS011;17458;48.958;8.284;2023-06-14T09:13:12;8.23;;;3.30;;
30707;SDS011;17458;48.958;8.284;2023-06-14T09:15:56;9.98;;;3.20;;
30707;SDS011;17458;48.958;8.284;2023-06-14T09:18:41;4.60;;;3.72;;
30707;SDS011;17458;48.958;8.284;2023-06-14T09:21:28;6.80;;;3.53;;
30707;SDS011;17458;48.958;8.284;2023-06-14T09:24:18;4.30;;;3.25;;
30707;SDS011;17458;48.958;8.284;2023-06-14T09:27:03;11.70;;;2.90;;
30707;SDS011;17458;48.958;8.284;2023-06-14T09:29:47;9.57;;;3.75;;
30707;SDS011;17458;48.958;8.284;2023-06-14T09:32:31;15.00;;;3.00;;
30707;SDS011;17458;48.958;8.284;2023-06-14T09:35:15;11.85;;;3.35;;
30707;SDS011;17458;48.958;8.284;2023-06-14T09:38:01;9.68;;;3.42;;
30707;SDS011;17458;48.958;8.284;2023-06-14T09:40:45;5.93;;;3.13;;
30707;SDS011;17458;48.958;8.284;2023-06-14T09:43:29;14.73;;;3.65;;
30707;SDS011;17458;48.958;8.284;2023-06-14T09:46:17;3.97;;;2.75;;
30707;SDS011;17458;48.958;8.284;2023-06-14T09:49:03;5.25;;;3.05;;
30707;SDS011;17458;48.958;8.284;2023-06-14T09:51:50;7.38;;;3.33;;
30707;SDS011;17458;48.958;8.284;2023-06-14T09:54:40;5.72;;;3.00;;
30707;SDS011;17458;48.958;8.284;2023-06-14T09:57:30;5.55;;;2.95;;
30707;SDS011;17458;48.958;8.284;2023-06-14T10:00:16;6.50;;;2.83;;
30707;SDS011;17458;48.958;8.284;2023-06-14T10:03:13;6.53;;;2.83;;
30707;SDS011;17458;48.958;8.284;2023-06-14T10:06:01;4.32;;;2.97;;
30707;SDS011;17458;48.958;8.284;2023-06-14T10:08:51;5.47;;;2.95;;
30707;SDS011;17458;48.958;8.284;2023-06-14T10:11:40;6.63;;;2.60;;
30707;SDS011;17458;48.958;8.284;2023-06-14T10:14:27;9.77;;;3.80;;
30707;SDS011;17458;48.958;8.284;2023-06-14T10:17:12;6.07;;;3.15;;
30707;SDS011;17458;48.958;8.284;2023-06-14T10:22:50;11.07;;;2.90;;
30707;SDS011;17458;48.958;8.284;2023-06-14T10:25:42;6.65;;;2.90;;
30707;SDS011;17458;48.958;8.284;2023-06-14T10:28:26;4.20;;;2.88;;
30707;SDS011;17458;48.958;8.284;2023-06-14T10:31:11;6.28;;;3.20;;
30707;SDS011;17458;48.958;8.284;2023-06-14T10:33:57;5.72;;;3.22;;
30707;SDS011;17458;48.958;8.284;2023-06-14T10:36:41;10.93;;;4.07;;
30707;SDS011;17458;48.958;8.284;2023-06-14T10:39:27;12.38;;;3.70;;
30707;SDS011;17458;48.958;8.284;2023-06-14T10:42:12;5.70;;;3.13;;
30707;SDS011;17458;48.958;8.284;2023-06-14T10:44:57;4.38;;;2.60;;
30707;SDS011;17458;48.958;8.284;2023-06-14T10:47:45;12.10;;;3.42;;
30707;SDS011;17458;48.958;8.284;2023-06-14T10:50:32;7.18;;;3.20;;
30707;SDS011;17458;48.958;8.284;2023-06-14T10:53:24;14.85;;;3.70;;
30707;SDS011;17458;48.958;8.284;2023-06-14T10:56:08;6.88;;;2.95;;
30707;SDS011;17458;48.958;8.284;2023-06-14T10:58:52;27.75;;;3.67;;
30707;SDS011;17458;48.958;8.284;2023-06-14T11:01:37;4.05;;;2.33;;
30707;SDS011;17458;48.958;8.284;2023-06-14T11:05:08;7.13;;;2.95;;
30707;SDS011;17458;48.958;8.284;2023-06-14T11:10:40;4.85;;;2.60;;
30707;SDS011;17458;48.958;8.284;2023-06-14T11:13:25;6.13;;;2.80;;
30707;SDS011;17458;48.958;8.284;2023-06-14T11:16:14;19.92;;;3.83;;
30707;SDS011;17458;48.958;8.284;2023-06-14T11:19:00;9.85;;;4.10;;
30707;SDS011;17458;48.958;8.284;2023-06-14T11:21:47;7.93;;;4.03;;
30707;SDS011;17458;48.958;8.284;2023-06-14T11:24:32;14.45;;;3.92;;
30707;SDS011;17458;48.958;8.284;2023-06-14T11:27:16;10.93;;;3.30;;
30707;SDS011;17458;48.958;8.284;2023-06-14T11:30:00;6.70;;;4.35;;
30707;SDS011;17458;48.958;8.284;2023-06-14T11:32:48;6.65;;;3.40;;
30707;SDS011;17458;48.958;8.284;2023-06-14T11:35:34;7.28;;;3.03;;
30707;SDS011;17458;48.958;8.284;2023-06-14T11:38:18;10.02;;;3.00;;
30707;SDS011;17458;48.958;8.284;2023-06-14T11:41:02;4.20;;;2.78;;
30707;SDS011;17458;48.958;8.284;2023-06-14T11:43:46;4.05;;;2.90;;
30707;SDS011;17458;48.958;8.284;2023-06-14T11:46:30;6.20;;;3.60;;
30707;SDS011;17458;48.958;8.284;2023-06-14T11:49:14;5.22;;;2.67;;
30707;SDS011;17458;48.958;8.284;2023-06-14T11:51:58;3.75;;;3.10;;
30707;SDS011;17458;48.958;8.284;2023-06-14T11:54:42;6.53;;;3.53;;
30707;SDS011;17458;48.958;8.284;2023-06-14T11:57:26;7.15;;;4.47;;
30707;SDS011;17458;48.958;8.284;2023-06-14T12:00:10;10.00;;;3.58;;
30707;SDS011;17458;48.958;8.284;2023-06-14T12:02:56;6.43;;;2.72;;
30707;SDS011;17458;48.958;8.284;2023-06-14T12:05:40;13.85;;;3.28;;
30707;SDS011;17458;48.958;8.284;2023-06-14T12:08:31;7.93;;;3.80;;
30707;SDS011;17458;48.958;8.284;2023-06-14T12:11:22;3.75;;;2.80;;
30707;SDS011;17458;48.958;8.284;2023-06-14T12:14:06;10.00;;;3.40;;
30707;SDS011;17458;48.958;8.284;2023-06-14T12:17:03;4.72;;;3.08;;
30707;SDS011;17458;48.958;8.284;2023-06-14T12:19:50;8.23;;;3.92;;
30707;SDS011;17458;48.958;8.284;2023-06-14T12:22:35;6.60;;;3.08;;
30707;SDS011;17458;48.958;8.284;2023-06-14T12:25:29;11.32;;;3.38;;
30707;SDS011;17458;48.958;8.284;2023-06-14T12:28:18;4.57;;;3.17;;
30707;SDS011;17458;48.958;8.284;2023-06-14T12:31:02;14.85;;;4.05;;
30707;SDS011;17458;48.958;8.284;2023-06-14T12:33:47;10.25;;;3.33;;
30707;SDS011;17458;48.958;8.284;2023-06-14T12:36:32;7.13;;;2.72;;
30707;SDS011;17458;48.958;8.284;2023-06-14T12:39:17;6.80;;;2.67;;
30707;SDS011;17458;48.958;8.284;2023-06-14T12:42:02;7.43;;;3.20;;
30707;SDS011;17458;48.958;8.284;2023-06-14T12:44:47;3.95;;;3.20;;
30707;SDS011;17458;48.958;8.284;2023-06-14T12:47:31;10.00;;;3.05;;
30707;SDS011;17458;48.958;8.284;2023-06-14T12:50:16;4.50;;;2.97;;
30707;SDS011;17458;48.958;8.284;2023-06-14T12:53:00;6.07;;;3.55;;
30707;SDS011;17458;48.958;8.284;2023-06-14T12:55:44;4.78;;;2.90;;
30707;SDS011;17458;48.958;8.284;2023-06-14T12:58:28;6.03;;;3.50;;
30707;SDS011;17458;48.958;8.284;2023-06-14T13:01:12;8.05;;;3.03;;
30707;SDS011;17458;48.958;8.284;2023-06-14T13:03:56;9.65;;;2.90;;
30707;SDS011;17458;48.958;8.284;2023-06-14T13:09:56;8.52;;;3.15;;
30707;SDS011;17458;48.958;8.284;2023-06-14T13:12:40;9.82;;;2.95;;
30707;SDS011;17458;48.958;8.284;2023-06-14T13:15:24;3.90;;;2.60;;
30707;SDS011;17458;48.958;8.284;2023-06-14T13:18:08;4.35;;;2.88;;
30707;SDS011;17458;48.958;8.284;2023-06-14T13:20:52;7.20;;;3.20;;
30707;SDS011;17458;48.958;8.284;2023-06-14T13:23:36;14.32;;;4.00;;
30707;SDS011;17458;48.958;8.284;2023-06-14T13:26:20;5.43;;;2.78;;
30707;SDS011;17458;48.958;8.284;2023-06-14T13:29:04;7.55;;;2.40;;
30707;SDS011;17458;48.958;8.284;2023-06-14T13:31:48;15.70;;;2.88;;
30707;SDS011;17458;48.958;8.284;2023-06-14T13:34:32;6.50;;;2.40;;
30707;SDS011;17458;48.958;8.284;2023-06-14T13:37:16;2.80;;;2.50;;
30707;SDS011;17458;48.958;8.284;2023-06-14T13:40:00;8.48;;;2.70;;
30707;SDS011;17458;48.958;8.284;2023-06-14T13:42:47;10.68;;;2.88;;
30707;SDS011;17458;48.958;8.284;2023-06-14T13:45:30;6.78;;;3.05;;
30707;SDS011;17458;48.958;8.284;2023-06-14T13:48:15;4.70;;;2.67;;
30707;SDS011;17458;48.958;8.284;2023-06-14T13:51:02;5.28;;;3.08;;
30707;SDS011;17458;48.958;8.284;2023-06-14T13:53:48;4.05;;;2.80;;
30707;SDS011;17458;48.958;8.284;2023-06-14T13:56:32;6.00;;;2.80;;
30707;SDS011;17458;48.958;8.284;2023-06-14T13:59:16;5.50;;;2.80;;
30707;SDS011;17458;48.958;8.284;2023-06-14T14:02:00;3.22;;;2.78;;
30707;SDS011;17458;48.958;8.284;2023-06-14T14:04:44;3.92;;;2.88;;
30707;SDS011;17458;48.958;8.284;2023-06-14T14:07:35;3.22;;;2.70;;
30707;SDS011;17458;48.958;8.284;2023-06-14T14:10:20;4.75;;;2.35;;
30707;SDS011;17458;48.958;8.284;2023-06-14T14:13:04;9.48;;;3.15;;
30707;SDS011;17458;48.958;8.284;2023-06-14T14:15:48;7.05;;;3.28;;
30707;SDS011;17458;48.958;8.284;2023-06-14T14:18:35;12.30;;;3.80;;
30707;SDS011;17458;48.958;8.284;2023-06-14T14:21:20;6.38;;;2.47;;
30707;SDS011;17458;48.958;8.284;2023-06-14T14:24:04;7.53;;;3.08;;
30707;SDS011;17458;48.958;8.284;2023-06-14T14:26:49;8.95;;;3.08;;
30707;SDS011;17458;48.958;8.284;2023-06-14T14:29:33;8.02;;;3.08;;
30707;SDS011;17458;48.958;8.284;2023-06-14T14:32:17;7.50;;;3.45;;
30707;SDS011;17458;48.958;8.284;2023-06-14T14:35:01;9.73;;;2.65;;
30707;SDS011;17458;48.958;8.284;2023-06-14T14:37:45;3.58;;;2.15;;
30707;SDS011;17458;48.958;8.284;2023-06-14T14:40:29;4.78;;;2.80;;
30707;SDS011;17458;48.958;8.284;2023-06-14T14:43:13;8.13;;;2.88;;
30707;SDS011;17458;48.958;8.284;2023-06-14T14:45:57;5.78;;;2.72;;
30707;SDS011;17458;48.958;8.284;2023-06-14T14:48:41;6.47;;;2.25;;
30707;SDS011;17458;48.958;8.284;2023-06-14T14:51:26;4.25;;;2.72;;
30707;SDS011;17458;48.958;8.284;2023-06-14T14:54:10;9.02;;;2.83;;
30707;SDS011;17458;48.958;8.284;2023-06-14T14:56:55;6.28;;;2.67;;
30707;SDS011;17458;48.958;8.284;2023-06-14T14:59:39;3.00;;;2.05;;
30707;SDS011;17458;48.958;8.284;2023-06-14T15:02:23;4.53;;;2.30;;
30707;SDS011;17458;48.958;8.284;2023-06-14T15:05:07;4.43;;;2.40;;
30707;SDS011;17458;48.958;8.284;2023-06-14T15:07:52;2.80;;;2.10;;
30707;SDS011;17458;48.958;8.284;2023-06-14T15:10:36;6.88;;;3.25;;
30707;SDS011;17458;48.958;8.284;2023-06-14T15:13:19;3.08;;;2.40;;
30707;SDS011;17458;48.958;8.284;2023-06-14T15:16:03;3.95;;;2.72;;
30707;SDS011;17458;48.958;8.284;2023-06-14T15:18:48;8.23;;;2.50;;
30707;SDS011;17458;48.958;8.284;2023-06-14T15:21:32;3.83;;;2.40;;
30707;SDS011;17458;48.958;8.284;2023-06-14T15:24:16;7.65;;;2.70;;
30707;SDS011;17458;48.958;8.284;2023-06-14T15:27:00;8.95;;;2.75;;
30707;SDS011;17458;48.958;8.284;2023-06-14T15:29:45;2.88;;;2.30;;
30707;SDS011;17458;48.958;8.284;2023-06-14T15:32:29;8.90;;;2.63;;
30707;SDS011;17458;48.958;8.284;2023-06-14T15:35:14;4.55;;;2.28;;
30707;SDS011;17458;48.958;8.284;2023-06-14T15:38:01;5.70;;;2.53;;
30707;SDS011;17458;48.958;8.284;2023-06-14T15:40:45;3.75;;;2.72;;
30707;SDS011;17458;48.958;8.284;2023-06-14T15:43:29;6.28;;;2.40;;
30707;SDS011;17458;48.958;8.284;2023-06-14T15:46:14;3.72;;;2.78;;
30707;SDS011;17458;48.958;8.284;2023-06-14T15:48:58;2.90;;;2.40;;
30707;SDS011;17458;48.958;8.284;2023-06-14T15:51:42;5.30;;;2.40;;
30707;SDS011;17458;48.958;8.284;2023-06-14T15:54:26;5.63;;;2.45;;
30707;SDS011;17458;48.958;8.284;2023-06-14T15:57:11;5.35;;;2.58;;
30707;SDS011;17458;48.958;8.284;2023-06-14T15:59:55;4.22;;;2.63;;
30707;SDS011;17458;48.958;8.284;2023-06-14T16:02:39;6.47;;;2.70;;
30707;SDS011;17458;48.958;8.284;2023-06-14T16:05:23;3.42;;;2.30;;
30707;SDS011;17458;48.958;8.284;2023-06-14T16:08:07;3.08;;;2.22;;
30707;SDS011;17458;48.958;8.284;2023-06-14T16:10:51;5.45;;;2.83;;
30707;SDS011;17458;48.958;8.284;2023-06-14T16:13:39;15.40;;;3.10;;
30707;SDS011;17458;48.958;8.284;2023-06-14T16:16:25;7.38;;;2.13;;
30707;SDS011;17458;48.958;8.284;2023-06-14T16:19:09;5.95;;;2.80;;
30707;SDS011;17458;48.958;8.284;2023-06-14T16:21:53;6.82;;;2.53;;
30707;SDS011;17458;48.958;8.284;2023-06-14T16:24:37;3.90;;;2.50;;
30707;SDS011;17458;48.958;8.284;2023-06-14T16:27:21;9.10;;;2.75;;
30707;SDS011;17458;48.958;8.284;2023-06-14T16:30:05;3.75;;;2.10;;
30707;SDS011;17458;48.958;8.284;2023-06-14T16:32:50;3.25;;;2.38;;
30707;SDS011;17458;48.958;8.284;2023-06-14T16:35:34;6.35;;;3.00;;
30707;SDS011;17458;48.958;8.284;2023-06-14T16:38:18;5.32;;;2.80;;
30707;SDS011;17458;48.958;8.284;2023-06-14T16:41:04;9.88;;;2.65;;
30707;SDS011;17458;48.958;8.284;2023-06-14T16:43:48;15.82;;;4.05;;
30707;SDS011;17458;48.958;8.284;2023-06-14T16:46:33;5.28;;;2.53;;